sensor_id;sensor_type;location;lat;lon;timestamp;P1;durP1;ratioP1;P2;durP2;ratioP2
6017;SDS011;3037;51.068;13.780;2023-05-16T00:01:33;17.40;;;11.93;;
6017;SDS011;3037;51.068;13.780;2023-05-16T00:03:59;23.63;;;11.70;;
6017;SDS011;3037;51.068;13.780;2023-05-16T00:06:25;11.63;;;10.53;;
6017;SDS011;3037;51.068;13.780;2023-05-16T00:08:50;18.33;;;11.00;;
6017;SDS011;3037;51.068;13.780;2023-05-16T00:11:16;13.77;;;11.97;;
6017;SDS011;3037;51.068;13.780;2023-05-16T00:13:42;14.30;;;13.00;;
6017;SDS011;3037;51.068;13.780;2023-05-16T00:16:08;15.37;;;11.40;;
6017;SDS011;3037;51.068;13.780;2023-05-16T00:18:34;11.73;;;10.63;;
6017;SDS011;3037;51.068;13.780;2023-05-16T00:21:03;15.30;;;12.30;;
6017;SDS011;3037;51.068;13.780;2023-05-16T00:23:29;12.77;;;11.50;;
6017;SDS011;3037;51.068;13.780;2023-05-16T00:25:55;22.07;;;12.37;;
6017;SDS011;3037;51.068;13.780;2023-05-16T00:28:20;12.97;;;11.70;;
6017;SDS011;3037;51.068;13.780;2023-05-16T00:30:46;13.20;;;12.00;;
6017;SDS011;3037;51.068;13.780;2023-05-16T00:33:12;15.63;;;12.47;;
6017;SDS011;3037;51.068;13.780;2023-05-16T00:35:38;12.50;;;11.00;;
6017;SDS011;3037;51.068;13.780;2023-05-16T00:38:03;13.60;;;12.20;;
6017;SDS011;3037;51.068;13.780;2023-05-16T00:40:29;14.03;;;12.67;;
6017;SDS011;3037;51.068;13.780;2023-05-16T00:42:55;13.30;;;11.13;;
6017;SDS011;3037;51.068;13.780;2023-05-16T00:45:20;13.20;;;11.87;;
6017;SDS011;3037;51.068;13.780;2023-05-16T00:47:46;12.97;;;11.67;;
6017;SDS011;3037;51.068;13.780;2023-05-16T00:50:12;16.53;;;11.67;;
6017;SDS011;3037;51.068;13.780;2023-05-16T00:52:37;13.40;;;12.00;;
6017;SDS011;3037;51.068;13.780;2023-05-16T00:55:03;18.07;;;12.63;;
6017;SDS011;3037;51.068;13.780;2023-05-16T00:57:29;14.37;;;12.87;;
6017;SDS011;3037;51.068;13.780;2023-05-16T00:59:55;14.23;;;12.17;;
6017;SDS011;3037;51.068;13.780;2023-05-16T01:02:20;13.63;;;12.33;;
6017;SDS011;3037;51.068;13.780;2023-05-16T01:04:46;16.40;;;13.30;;
6017;SDS011;3037;51.068;13.780;2023-05-16T01:07:13;15.30;;;11.70;;
6017;SDS011;3037;51.068;13.780;2023-05-16T01:09:39;20.20;;;13.83;;
6017;SDS011;3037;51.068;13.780;2023-05-16T01:12:10;14.63;;;13.10;;
6017;SDS011;3037;51.068;13.780;2023-05-16T01:15:19;15.93;;;12.80;;
6017;SDS011;3037;51.068;13.780;2023-05-16T01:17:59;15.23;;;12.00;;
6017;SDS011;3037;51.068;13.780;2023-05-16T01:26:17;15.70;;;12.93;;
6017;SDS011;3037;51.068;13.780;2023-05-16T01:28:47;14.20;;;12.80;;
6017;SDS011;3037;51.068;13.780;2023-05-16T01:31:13;19.33;;;13.77;;
6017;SDS011;3037;51.068;13.780;2023-05-16T01:33:39;15.70;;;13.83;;
6017;SDS011;3037;51.068;13.780;2023-05-16T01:36:13;16.30;;;13.80;;
6017;SDS011;3037;51.068;13.780;2023-05-16T01:38:55;14.27;;;12.83;;
6017;SDS011;3037;51.068;13.780;2023-05-16T01:41:50;19.60;;;14.40;;
6017;SDS011;3037;51.068;13.780;2023-05-16T01:44:34;14.87;;;13.37;;
6017;SDS011;3037;51.068;13.780;2023-05-16T01:47:06;15.37;;;13.97;;
6017;SDS011;3037;51.068;13.780;2023-05-16T01:49:43;24.90;;;15.47;;
6017;SDS011;3037;51.068;13.780;2023-05-16T01:52:23;16.23;;;14.53;;
6017;SDS011;3037;51.068;13.780;2023-05-16T01:55:10;17.50;;;13.60;;
6017;SDS011;3037;51.068;13.780;2023-05-16T01:57:40;18.23;;;15.33;;
6017;SDS011;3037;51.068;13.780;2023-05-16T02:00:07;17.20;;;14.93;;
6017;SDS011;3037;51.068;13.780;2023-05-16T02:02:33;26.80;;;14.43;;
6017;SDS011;3037;51.068;13.780;2023-05-16T02:04:58;23.20;;;16.13;;
6017;SDS011;3037;51.068;13.780;2023-05-16T02:07:24;16.93;;;14.43;;
6017;SDS011;3037;51.068;13.780;2023-05-16T02:09:49;20.27;;;14.97;;
6017;SDS011;3037;51.068;13.780;2023-05-16T02:12:15;19.03;;;14.00;;
6017;SDS011;3037;51.068;13.780;2023-05-16T02:14:40;17.53;;;15.73;;
6017;SDS011;3037;51.068;13.780;2023-05-16T02:17:06;17.97;;;16.17;;
6017;SDS011;3037;51.068;13.780;2023-05-16T02:19:32;19.07;;;15.83;;
6017;SDS011;3037;51.068;13.780;2023-05-16T02:21:57;18.50;;;16.43;;
6017;SDS011;3037;51.068;13.780;2023-05-16T02:24:23;17.47;;;15.67;;
6017;SDS011;3037;51.068;13.780;2023-05-16T02:26:48;17.00;;;15.20;;
6017;SDS011;3037;51.068;13.780;2023-05-16T02:29:13;16.97;;;14.40;;
6017;SDS011;3037;51.068;13.780;2023-05-16T02:31:40;28.43;;;15.47;;
6017;SDS011;3037;51.068;13.780;2023-05-16T02:34:06;18.37;;;16.40;;
6017;SDS011;3037;51.068;13.780;2023-05-16T02:36:32;22.63;;;16.77;;
6017;SDS011;3037;51.068;13.780;2023-05-16T02:38:59;22.20;;;16.30;;
6017;SDS011;3037;51.068;13.780;2023-05-16T02:41:25;16.17;;;14.67;;
6017;SDS011;3037;51.068;13.780;2023-05-16T02:43:51;17.37;;;15.33;;
6017;SDS011;3037;51.068;13.780;2023-05-16T02:46:24;20.70;;;15.67;;
6017;SDS011;3037;51.068;13.780;2023-05-16T02:48:51;19.43;;;16.40;;
6017;SDS011;3037;51.068;13.780;2023-05-16T02:51:18;22.50;;;15.87;;
6017;SDS011;3037;51.068;13.780;2023-05-16T02:53:45;18.17;;;14.60;;
6017;SDS011;3037;51.068;13.780;2023-05-16T02:56:11;19.53;;;14.93;;
6017;SDS011;3037;51.068;13.780;2023-05-16T02:58:37;16.87;;;15.17;;
6017;SDS011;3037;51.068;13.780;2023-05-16T03:01:02;23.67;;;16.00;;
6017;SDS011;3037;51.068;13.780;2023-05-16T03:03:28;17.07;;;14.40;;
6017;SDS011;3037;51.068;13.780;2023-05-16T03:05:54;19.53;;;15.63;;
6017;SDS011;3037;51.068;13.780;2023-05-16T03:08:19;22.37;;;15.67;;
6017;SDS011;3037;51.068;13.780;2023-05-16T03:10:45;17.40;;;14.73;;
6017;SDS011;3037;51.068;13.780;2023-05-16T03:13:10;25.90;;;17.53;;
6017;SDS011;3037;51.068;13.780;2023-05-16T03:15:36;19.63;;;15.90;;
6017;SDS011;3037;51.068;13.780;2023-05-16T03:18:01;18.60;;;15.23;;
6017;SDS011;3037;51.068;13.780;2023-05-16T03:20:27;17.40;;;15.67;;
6017;SDS011;3037;51.068;13.780;2023-05-16T03:22:53;21.03;;;15.20;;
6017;SDS011;3037;51.068;13.780;2023-05-16T03:25:18;17.87;;;15.87;;
6017;SDS011;3037;51.068;13.780;2023-05-16T03:27:44;17.93;;;14.83;;
6017;SDS011;3037;51.068;13.780;2023-05-16T03:30:10;16.00;;;14.30;;
6017;SDS011;3037;51.068;13.780;2023-05-16T03:32:36;22.87;;;15.93;;
6017;SDS011;3037;51.068;13.780;2023-05-16T03:35:02;26.63;;;15.67;;
6017;SDS011;3037;51.068;13.780;2023-05-16T03:37:28;17.87;;;15.13;;
6017;SDS011;3037;51.068;13.780;2023-05-16T03:39:53;17.07;;;15.27;;
6017;SDS011;3037;51.068;13.780;2023-05-16T03:42:19;18.53;;;14.83;;
6017;SDS011;3037;51.068;13.780;2023-05-16T03:44:45;24.20;;;16.27;;
6017;SDS011;3037;51.068;13.780;2023-05-16T03:47:10;23.33;;;16.37;;
6017;SDS011;3037;51.068;13.780;2023-05-16T03:49:36;16.70;;;15.10;;
6017;SDS011;3037;51.068;13.780;2023-05-16T03:52:02;18.87;;;15.37;;
6017;SDS011;3037;51.068;13.780;2023-05-16T03:54:28;16.53;;;14.93;;
6017;SDS011;3037;51.068;13.780;2023-05-16T03:56:54;18.20;;;15.20;;
6017;SDS011;3037;51.068;13.780;2023-05-16T03:59:19;22.83;;;15.23;;
6017;SDS011;3037;51.068;13.780;2023-05-16T04:01:45;17.30;;;15.53;;
6017;SDS011;3037;51.068;13.780;2023-05-16T04:04:11;15.80;;;14.20;;
6017;SDS011;3037;51.068;13.780;2023-05-16T04:06:36;24.23;;;16.40;;
6017;SDS011;3037;51.068;13.780;2023-05-16T04:09:02;18.40;;;15.87;;
6017;SDS011;3037;51.068;13.780;2023-05-16T04:11:27;20.50;;;16.90;;
6017;SDS011;3037;51.068;13.780;2023-05-16T04:13:53;17.17;;;15.37;;
6017;SDS011;3037;51.068;13.780;2023-05-16T04:16:18;18.17;;;16.00;;
6017;SDS011;3037;51.068;13.780;2023-05-16T04:18:44;28.23;;;17.27;;
6017;SDS011;3037;51.068;13.780;2023-05-16T04:21:10;21.23;;;15.20;;
6017;SDS011;3037;51.068;13.780;2023-05-16T04:23:39;16.50;;;14.77;;
6017;SDS011;3037;51.068;13.780;2023-05-16T04:26:05;19.77;;;16.00;;
6017;SDS011;3037;51.068;13.780;2023-05-16T04:28:30;19.07;;;15.23;;
6017;SDS011;3037;51.068;13.780;2023-05-16T04:30:56;19.57;;;16.77;;
6017;SDS011;3037;51.068;13.780;2023-05-16T04:33:22;17.60;;;15.57;;
6017;SDS011;3037;51.068;13.780;2023-05-16T04:35:47;17.77;;;15.87;;
6017;SDS011;3037;51.068;13.780;2023-05-16T04:38:13;20.30;;;15.47;;
6017;SDS011;3037;51.068;13.780;2023-05-16T04:40:39;25.47;;;16.83;;
6017;SDS011;3037;51.068;13.780;2023-05-16T04:43:05;17.30;;;15.03;;
6017;SDS011;3037;51.068;13.780;2023-05-16T04:45:31;21.80;;;15.80;;
6017;SDS011;3037;51.068;13.780;2023-05-16T04:47:57;15.67;;;14.07;;
6017;SDS011;3037;51.068;13.780;2023-05-16T04:50:22;27.33;;;14.93;;
6017;SDS011;3037;51.068;13.780;2023-05-16T04:52:48;27.97;;;13.53;;
6017;SDS011;3037;51.068;13.780;2023-05-16T04:55:13;21.37;;;17.50;;
6017;SDS011;3037;51.068;13.780;2023-05-16T04:57:40;17.33;;;15.03;;
6017;SDS011;3037;51.068;13.780;2023-05-16T05:00:05;18.70;;;14.40;;
6017;SDS011;3037;51.068;13.780;2023-05-16T05:02:34;18.33;;;15.60;;
6017;SDS011;3037;51.068;13.780;2023-05-16T05:04:59;16.40;;;14.70;;
6017;SDS011;3037;51.068;13.780;2023-05-16T05:07:25;24.90;;;16.57;;
6017;SDS011;3037;51.068;13.780;2023-05-16T05:09:53;20.53;;;15.60;;
6017;SDS011;3037;51.068;13.780;2023-05-16T05:12:20;20.30;;;15.33;;
6017;SDS011;3037;51.068;13.780;2023-05-16T05:14:45;17.83;;;15.03;;
6017;SDS011;3037;51.068;13.780;2023-05-16T05:17:11;19.37;;;16.97;;
6017;SDS011;3037;51.068;13.780;2023-05-16T05:19:37;19.23;;;16.50;;
6017;SDS011;3037;51.068;13.780;2023-05-16T05:22:02;18.30;;;15.43;;
6017;SDS011;3037;51.068;13.780;2023-05-16T05:24:28;19.00;;;16.60;;
6017;SDS011;3037;51.068;13.780;2023-05-16T05:26:53;23.43;;;17.80;;
6017;SDS011;3037;51.068;13.780;2023-05-16T05:29:19;36.47;;;18.40;;
6017;SDS011;3037;51.068;13.780;2023-05-16T05:31:45;19.80;;;17.57;;
6017;SDS011;3037;51.068;13.780;2023-05-16T05:34:11;20.87;;;17.20;;
6017;SDS011;3037;51.068;13.780;2023-05-16T05:36:36;22.17;;;17.97;;
6017;SDS011;3037;51.068;13.780;2023-05-16T05:39:02;21.00;;;17.67;;
6017;SDS011;3037;51.068;13.780;2023-05-16T05:41:27;21.57;;;17.70;;
6017;SDS011;3037;51.068;13.780;2023-05-16T05:43:53;22.97;;;18.70;;
6017;SDS011;3037;51.068;13.780;2023-05-16T05:46:18;20.13;;;17.47;;
6017;SDS011;3037;51.068;13.780;2023-05-16T05:48:44;22.53;;;18.13;;
6017;SDS011;3037;51.068;13.780;2023-05-16T05:51:09;24.00;;;17.47;;
6017;SDS011;3037;51.068;13.780;2023-05-16T05:53:35;19.80;;;17.50;;
6017;SDS011;3037;51.068;13.780;2023-05-16T05:56:00;21.37;;;18.80;;
6017;SDS011;3037;51.068;13.780;2023-05-16T05:58:26;28.60;;;19.40;;
6017;SDS011;3037;51.068;13.780;2023-05-16T06:00:52;22.43;;;19.63;;
6017;SDS011;3037;51.068;13.780;2023-05-16T06:03:17;26.10;;;19.80;;
6017;SDS011;3037;51.068;13.780;2023-05-16T06:05:44;29.00;;;20.00;;
6017;SDS011;3037;51.068;13.780;2023-05-16T06:08:10;25.37;;;18.40;;
6017;SDS011;3037;51.068;13.780;2023-05-16T06:10:35;24.93;;;18.50;;
6017;SDS011;3037;51.068;13.780;2023-05-16T06:13:01;24.70;;;20.23;;
6017;SDS011;3037;51.068;13.780;2023-05-16T06:15:26;23.43;;;18.97;;
6017;SDS011;3037;51.068;13.780;2023-05-16T06:17:52;26.70;;;20.57;;
6017;SDS011;3037;51.068;13.780;2023-05-16T06:20:17;29.80;;;19.40;;
6017;SDS011;3037;51.068;13.780;2023-05-16T06:22:43;24.33;;;20.07;;
6017;SDS011;3037;51.068;13.780;2023-05-16T06:25:09;26.80;;;21.80;;
6017;SDS011;3037;51.068;13.780;2023-05-16T06:27:34;27.23;;;21.87;;
6017;SDS011;3037;51.068;13.780;2023-05-16T06:30:00;28.43;;;21.30;;
6017;SDS011;3037;51.068;13.780;2023-05-16T06:32:25;30.07;;;21.37;;
6017;SDS011;3037;51.068;13.780;2023-05-16T06:34:51;31.13;;;23.57;;
6017;SDS011;3037;51.068;13.780;2023-05-16T06:37:16;28.47;;;23.57;;
6017;SDS011;3037;51.068;13.780;2023-05-16T06:39:42;32.80;;;27.60;;
6017;SDS011;3037;51.068;13.780;2023-05-16T06:42:08;39.63;;;28.70;;
6017;SDS011;3037;51.068;13.780;2023-05-16T06:44:34;36.80;;;28.57;;
6017;SDS011;3037;51.068;13.780;2023-05-16T06:47:00;36.93;;;28.33;;
6017;SDS011;3037;51.068;13.780;2023-05-16T06:49:25;45.67;;;29.90;;
6017;SDS011;3037;51.068;13.780;2023-05-16T06:51:51;43.40;;;28.97;;
6017;SDS011;3037;51.068;13.780;2023-05-16T06:54:16;40.93;;;30.10;;
6017;SDS011;3037;51.068;13.780;2023-05-16T06:56:42;44.07;;;30.33;;
6017;SDS011;3037;51.068;13.780;2023-05-16T06:59:08;36.57;;;30.67;;
6017;SDS011;3037;51.068;13.780;2023-05-16T07:01:33;46.97;;;30.57;;
6017;SDS011;3037;51.068;13.780;2023-05-16T07:03:59;41.47;;;29.87;;
6017;SDS011;3037;51.068;13.780;2023-05-16T07:06:24;39.50;;;30.77;;
6017;SDS011;3037;51.068;13.780;2023-05-16T07:08:50;45.07;;;30.17;;
6017;SDS011;3037;51.068;13.780;2023-05-16T07:11:16;44.43;;;28.73;;
6017;SDS011;3037;51.068;13.780;2023-05-16T07:13:41;36.70;;;30.40;;
6017;SDS011;3037;51.068;13.780;2023-05-16T07:16:07;35.30;;;26.27;;
6017;SDS011;3037;51.068;13.780;2023-05-16T07:18:32;33.83;;;25.07;;
6017;SDS011;3037;51.068;13.780;2023-05-16T07:20:58;31.20;;;24.70;;
6017;SDS011;3037;51.068;13.780;2023-05-16T07:23:23;33.30;;;25.37;;
6017;SDS011;3037;51.068;13.780;2023-05-16T07:25:49;27.80;;;22.53;;
6017;SDS011;3037;51.068;13.780;2023-05-16T07:28:15;27.93;;;20.30;;
6017;SDS011;3037;51.068;13.780;2023-05-16T07:30:41;23.87;;;19.17;;
6017;SDS011;3037;51.068;13.780;2023-05-16T07:33:06;31.30;;;19.83;;
6017;SDS011;3037;51.068;13.780;2023-05-16T07:35:32;29.37;;;21.20;;
6017;SDS011;3037;51.068;13.780;2023-05-16T07:37:57;25.30;;;22.17;;
6017;SDS011;3037;51.068;13.780;2023-05-16T07:40:23;29.63;;;22.43;;
6017;SDS011;3037;51.068;13.780;2023-05-16T07:42:52;35.30;;;21.07;;
6017;SDS011;3037;51.068;13.780;2023-05-16T07:45:17;29.37;;;20.87;;
6017;SDS011;3037;51.068;13.780;2023-05-16T07:47:43;28.27;;;21.20;;
6017;SDS011;3037;51.068;13.780;2023-05-16T07:50:09;25.33;;;19.37;;
6017;SDS011;3037;51.068;13.780;2023-05-16T07:52:35;28.23;;;18.73;;
6017;SDS011;3037;51.068;13.780;2023-05-16T07:55:01;25.53;;;19.10;;
6017;SDS011;3037;51.068;13.780;2023-05-16T07:57:27;23.43;;;17.50;;
6017;SDS011;3037;51.068;13.780;2023-05-16T07:59:53;25.20;;;17.23;;
6017;SDS011;3037;51.068;13.780;2023-05-16T08:02:19;18.83;;;15.30;;
6017;SDS011;3037;51.068;13.780;2023-05-16T08:04:44;24.30;;;15.00;;
6017;SDS011;3037;51.068;13.780;2023-05-16T08:07:10;30.73;;;14.97;;
6017;SDS011;3037;51.068;13.780;2023-05-16T08:09:36;18.77;;;14.60;;
6017;SDS011;3037;51.068;13.780;2023-05-16T08:12:01;19.50;;;14.30;;
6017;SDS011;3037;51.068;13.780;2023-05-16T08:14:28;24.03;;;14.97;;
6017;SDS011;3037;51.068;13.780;2023-05-16T08:16:55;23.23;;;14.67;;
6017;SDS011;3037;51.068;13.780;2023-05-16T08:19:22;16.73;;;13.30;;
6017;SDS011;3037;51.068;13.780;2023-05-16T08:21:47;15.83;;;12.87;;
6017;SDS011;3037;51.068;13.780;2023-05-16T08:24:13;19.10;;;13.87;;
6017;SDS011;3037;51.068;13.780;2023-05-16T08:26:38;17.03;;;13.33;;
6017;SDS011;3037;51.068;13.780;2023-05-16T08:29:04;18.57;;;13.70;;
6017;SDS011;3037;51.068;13.780;2023-05-16T08:31:29;20.20;;;12.20;;
6017;SDS011;3037;51.068;13.780;2023-05-16T08:33:55;25.57;;;13.87;;
6017;SDS011;3037;51.068;13.780;2023-05-16T08:36:21;14.77;;;13.10;;
6017;SDS011;3037;51.068;13.780;2023-05-16T08:38:48;19.60;;;13.50;;
6017;SDS011;3037;51.068;13.780;2023-05-16T08:41:13;16.70;;;14.13;;
6017;SDS011;3037;51.068;13.780;2023-05-16T08:43:39;21.53;;;13.70;;
6017;SDS011;3037;51.068;13.780;2023-05-16T08:46:05;24.13;;;14.27;;
6017;SDS011;3037;51.068;13.780;2023-05-16T08:48:32;22.67;;;13.67;;
6017;SDS011;3037;51.068;13.780;2023-05-16T08:50:59;19.53;;;12.80;;
6017;SDS011;3037;51.068;13.780;2023-05-16T08:53:30;17.20;;;12.47;;
6017;SDS011;3037;51.068;13.780;2023-05-16T08:56:01;16.27;;;12.00;;
6017;SDS011;3037;51.068;13.780;2023-05-16T08:58:27;13.87;;;12.07;;
6017;SDS011;3037;51.068;13.780;2023-05-16T09:00:54;18.50;;;12.60;;
6017;SDS011;3037;51.068;13.780;2023-05-16T09:03:20;14.50;;;12.27;;
6017;SDS011;3037;51.068;13.780;2023-05-16T09:05:47;12.93;;;11.50;;
6017;SDS011;3037;51.068;13.780;2023-05-16T09:08:14;16.43;;;11.57;;
6017;SDS011;3037;51.068;13.780;2023-05-16T09:10:39;20.03;;;12.50;;
6017;SDS011;3037;51.068;13.780;2023-05-16T09:13:05;14.60;;;12.27;;
6017;SDS011;3037;51.068;13.780;2023-05-16T09:15:31;21.27;;;11.93;;
6017;SDS011;3037;51.068;13.780;2023-05-16T09:17:59;17.90;;;12.10;;
6017;SDS011;3037;51.068;13.780;2023-05-16T09:20:25;13.10;;;11.17;;
6017;SDS011;3037;51.068;13.780;2023-05-16T09:25:21;18.40;;;11.90;;
6017;SDS011;3037;51.068;13.780;2023-05-16T09:27:51;22.90;;;11.97;;
6017;SDS011;3037;51.068;13.780;2023-05-16T09:30:20;16.30;;;12.17;;
6017;SDS011;3037;51.068;13.780;2023-05-16T09:32:49;13.50;;;10.87;;
6017;SDS011;3037;51.068;13.780;2023-05-16T09:35:16;16.43;;;10.93;;
6017;SDS011;3037;51.068;13.780;2023-05-16T09:37:46;11.47;;;10.30;;
6017;SDS011;3037;51.068;13.780;2023-05-16T09:40:13;13.40;;;11.70;;
6017;SDS011;3037;51.068;13.780;2023-05-16T09:42:38;14.40;;;10.97;;
6017;SDS011;3037;51.068;13.780;2023-05-16T09:45:04;16.43;;;11.93;;
6017;SDS011;3037;51.068;13.780;2023-05-16T09:47:30;16.57;;;10.60;;
6017;SDS011;3037;51.068;13.780;2023-05-16T09:49:56;15.67;;;9.70;;
6017;SDS011;3037;51.068;13.780;2023-05-16T09:52:25;16.10;;;10.40;;
6017;SDS011;3037;51.068;13.780;2023-05-16T09:54:51;16.30;;;10.03;;
6017;SDS011;3037;51.068;13.780;2023-05-16T09:57:19;14.90;;;11.53;;
6017;SDS011;3037;51.068;13.780;2023-05-16T09:59:45;11.83;;;9.37;;
6017;SDS011;3037;51.068;13.780;2023-05-16T10:02:12;16.93;;;9.77;;
6017;SDS011;3037;51.068;13.780;2023-05-16T10:04:37;12.17;;;9.80;;
6017;SDS011;3037;51.068;13.780;2023-05-16T10:07:03;12.90;;;8.93;;
6017;SDS011;3037;51.068;13.780;2023-05-16T10:09:34;18.23;;;9.43;;
6017;SDS011;3037;51.068;13.780;2023-05-16T10:12:00;10.23;;;8.13;;
6017;SDS011;3037;51.068;13.780;2023-05-16T10:14:28;11.90;;;8.27;;
6017;SDS011;3037;51.068;13.780;2023-05-16T10:16:57;14.03;;;9.23;;
6017;SDS011;3037;51.068;13.780;2023-05-16T10:19:24;13.00;;;8.13;;
6017;SDS011;3037;51.068;13.780;2023-05-16T10:21:51;13.10;;;8.10;;
6017;SDS011;3037;51.068;13.780;2023-05-16T10:24:21;15.03;;;8.20;;
6017;SDS011;3037;51.068;13.780;2023-05-16T10:26:53;12.93;;;8.40;;
6017;SDS011;3037;51.068;13.780;2023-05-16T10:29:18;8.77;;;7.37;;
6017;SDS011;3037;51.068;13.780;2023-05-16T10:31:45;10.70;;;8.80;;
6017;SDS011;3037;51.068;13.780;2023-05-16T10:34:12;8.87;;;7.30;;
6017;SDS011;3037;51.068;13.780;2023-05-16T10:36:38;13.23;;;7.70;;
6017;SDS011;3037;51.068;13.780;2023-05-16T10:39:04;10.80;;;8.33;;
6017;SDS011;3037;51.068;13.780;2023-05-16T10:41:31;12.77;;;7.43;;
6017;SDS011;3037;51.068;13.780;2023-05-16T10:43:58;16.00;;;8.07;;
6017;SDS011;3037;51.068;13.780;2023-05-16T10:46:25;9.20;;;8.10;;
6017;SDS011;3037;51.068;13.780;2023-05-16T10:48:53;16.23;;;8.17;;
6017;SDS011;3037;51.068;13.780;2023-05-16T10:54:03;8.13;;;7.30;;
6017;SDS011;3037;51.068;13.780;2023-05-16T10:56:31;9.07;;;8.17;;
6017;SDS011;3037;51.068;13.780;2023-05-16T10:58:58;10.90;;;7.40;;
6017;SDS011;3037;51.068;13.780;2023-05-16T11:01:26;19.70;;;7.73;;
6017;SDS011;3037;51.068;13.780;2023-05-16T11:11:52;12.23;;;7.87;;
6017;SDS011;3037;51.068;13.780;2023-05-16T11:24:51;7.33;;;6.00;;
6017;SDS011;3037;51.068;13.780;2023-05-16T11:32:46;13.40;;;5.50;;
6017;SDS011;3037;51.068;13.780;2023-05-16T11:35:13;6.90;;;5.80;;
6017;SDS011;3037;51.068;13.780;2023-05-16T11:37:40;5.97;;;5.23;;
6017;SDS011;3037;51.068;13.780;2023-05-16T11:40:08;7.73;;;6.10;;
6017;SDS011;3037;51.068;13.780;2023-05-16T11:42:38;7.60;;;6.47;;
6017;SDS011;3037;51.068;13.780;2023-05-16T11:45:09;13.50;;;5.60;;
6017;SDS011;3037;51.068;13.780;2023-05-16T11:47:40;5.93;;;5.33;;
6017;SDS011;3037;51.068;13.780;2023-05-16T11:50:11;5.10;;;4.60;;
6017;SDS011;3037;51.068;13.780;2023-05-16T11:52:38;8.03;;;4.93;;
6017;SDS011;3037;51.068;13.780;2023-05-16T11:55:07;5.50;;;4.93;;
6017;SDS011;3037;51.068;13.780;2023-05-16T11:57:35;8.37;;;4.80;;
6017;SDS011;3037;51.068;13.780;2023-05-16T12:00:18;4.83;;;4.50;;
6017;SDS011;3037;51.068;13.780;2023-05-16T12:02:46;5.47;;;5.10;;
6017;SDS011;3037;51.068;13.780;2023-05-16T12:05:12;6.67;;;4.80;;
6017;SDS011;3037;51.068;13.780;2023-05-16T12:07:39;5.13;;;4.70;;
6017;SDS011;3037;51.068;13.780;2023-05-16T12:10:08;11.73;;;5.50;;
6017;SDS011;3037;51.068;13.780;2023-05-16T12:12:35;5.93;;;4.43;;
6017;SDS011;3037;51.068;13.780;2023-05-16T12:15:02;5.37;;;5.07;;
6017;SDS011;3037;51.068;13.780;2023-05-16T12:17:28;4.97;;;4.47;;
6017;SDS011;3037;51.068;13.780;2023-05-16T12:19:54;5.20;;;4.80;;
6017;SDS011;3037;51.068;13.780;2023-05-16T12:22:20;4.33;;;4.10;;
6017;SDS011;3037;51.068;13.780;2023-05-16T12:24:46;9.83;;;3.70;;
6017;SDS011;3037;51.068;13.780;2023-05-16T12:27:11;6.17;;;4.50;;
6017;SDS011;3037;51.068;13.780;2023-05-16T12:29:37;7.70;;;5.10;;
6017;SDS011;3037;51.068;13.780;2023-05-16T12:32:03;4.17;;;3.80;;
6017;SDS011;3037;51.068;13.780;2023-05-16T12:34:31;7.37;;;4.00;;
6017;SDS011;3037;51.068;13.780;2023-05-16T12:36:57;6.90;;;4.13;;
6017;SDS011;3037;51.068;13.780;2023-05-16T12:39:23;4.73;;;3.83;;
6017;SDS011;3037;51.068;13.780;2023-05-16T12:41:49;3.67;;;3.57;;
6017;SDS011;3037;51.068;13.780;2023-05-16T12:44:15;5.53;;;4.67;;
6017;SDS011;3037;51.068;13.780;2023-05-16T12:46:43;6.00;;;3.67;;
6017;SDS011;3037;51.068;13.780;2023-05-16T12:49:11;5.20;;;4.10;;
6017;SDS011;3037;51.068;13.780;2023-05-16T12:51:37;4.00;;;3.73;;
6017;SDS011;3037;51.068;13.780;2023-05-16T12:54:10;6.33;;;4.33;;
6017;SDS011;3037;51.068;13.780;2023-05-16T12:56:39;5.80;;;4.30;;
6017;SDS011;3037;51.068;13.780;2023-05-16T12:59:06;4.27;;;3.97;;
6017;SDS011;3037;51.068;13.780;2023-05-16T13:01:32;4.83;;;4.13;;
6017;SDS011;3037;51.068;13.780;2023-05-16T13:03:59;5.07;;;4.57;;
6017;SDS011;3037;51.068;13.780;2023-05-16T13:06:25;7.60;;;4.80;;
6017;SDS011;3037;51.068;13.780;2023-05-16T13:08:51;6.13;;;4.10;;
6017;SDS011;3037;51.068;13.780;2023-05-16T13:11:16;5.13;;;4.33;;
6017;SDS011;3037;51.068;13.780;2023-05-16T13:13:43;7.77;;;4.30;;
6017;SDS011;3037;51.068;13.780;2023-05-16T13:16:08;5.67;;;4.10;;
6017;SDS011;3037;51.068;13.780;2023-05-16T13:18:34;3.80;;;3.60;;
6017;SDS011;3037;51.068;13.780;2023-05-16T13:21:00;4.63;;;3.70;;
6017;SDS011;3037;51.068;13.780;2023-05-16T13:23:28;6.60;;;3.70;;
6017;SDS011;3037;51.068;13.780;2023-05-16T13:25:54;8.03;;;4.00;;
6017;SDS011;3037;51.068;13.780;2023-05-16T13:28:19;8.50;;;4.07;;
6017;SDS011;3037;51.068;13.780;2023-05-16T13:30:45;6.03;;;3.70;;
6017;SDS011;3037;51.068;13.780;2023-05-16T13:33:10;4.37;;;4.03;;
6017;SDS011;3037;51.068;13.780;2023-05-16T13:35:36;5.90;;;3.90;;
6017;SDS011;3037;51.068;13.780;2023-05-16T13:38:02;9.57;;;4.17;;
6017;SDS011;3037;51.068;13.780;2023-05-16T13:40:27;4.73;;;3.30;;
6017;SDS011;3037;51.068;13.780;2023-05-16T13:42:53;4.87;;;3.30;;
6017;SDS011;3037;51.068;13.780;2023-05-16T13:45:19;4.00;;;3.60;;
6017;SDS011;3037;51.068;13.780;2023-05-16T13:47:44;3.97;;;3.63;;
6017;SDS011;3037;51.068;13.780;2023-05-16T13:50:10;3.17;;;2.97;;
6017;SDS011;3037;51.068;13.780;2023-05-16T13:52:36;3.80;;;3.37;;
6017;SDS011;3037;51.068;13.780;2023-05-16T13:55:02;3.27;;;3.17;;
6017;SDS011;3037;51.068;13.780;2023-05-16T13:57:28;3.63;;;3.43;;
6017;SDS011;3037;51.068;13.780;2023-05-16T13:59:54;4.07;;;3.40;;
6017;SDS011;3037;51.068;13.780;2023-05-16T14:02:20;5.30;;;3.60;;
6017;SDS011;3037;51.068;13.780;2023-05-16T14:04:46;4.73;;;3.23;;
6017;SDS011;3037;51.068;13.780;2023-05-16T14:07:11;3.80;;;3.47;;
6017;SDS011;3037;51.068;13.780;2023-05-16T14:09:37;5.40;;;3.20;;
6017;SDS011;3037;51.068;13.780;2023-05-16T14:12:06;3.33;;;3.03;;
6017;SDS011;3037;51.068;13.780;2023-05-16T14:14:32;6.87;;;3.70;;
6017;SDS011;3037;51.068;13.780;2023-05-16T14:16:59;5.50;;;3.20;;
6017;SDS011;3037;51.068;13.780;2023-05-16T14:19:25;4.17;;;3.10;;
6017;SDS011;3037;51.068;13.780;2023-05-16T14:21:50;3.67;;;2.90;;
6017;SDS011;3037;51.068;13.780;2023-05-16T14:24:16;4.43;;;3.03;;
6017;SDS011;3037;51.068;13.780;2023-05-16T14:26:41;5.13;;;2.57;;
6017;SDS011;3037;51.068;13.780;2023-05-16T14:29:07;6.57;;;3.67;;
6017;SDS011;3037;51.068;13.780;2023-05-16T14:31:32;7.40;;;3.20;;
6017;SDS011;3037;51.068;13.780;2023-05-16T14:34:00;5.93;;;3.50;;
6017;SDS011;3037;51.068;13.780;2023-05-16T14:36:25;6.53;;;3.10;;
6017;SDS011;3037;51.068;13.780;2023-05-16T14:38:51;11.50;;;3.50;;
6017;SDS011;3037;51.068;13.780;2023-05-16T14:41:17;7.57;;;3.27;;
6017;SDS011;3037;51.068;13.780;2023-05-16T14:43:43;7.57;;;3.10;;
6017;SDS011;3037;51.068;13.780;2023-05-16T14:46:09;5.13;;;2.97;;
6017;SDS011;3037;51.068;13.780;2023-05-16T14:48:34;5.80;;;3.50;;
6017;SDS011;3037;51.068;13.780;2023-05-16T14:51:00;10.03;;;2.80;;
6017;SDS011;3037;51.068;13.780;2023-05-16T14:53:26;4.93;;;3.33;;
6017;SDS011;3037;51.068;13.780;2023-05-16T14:55:51;12.53;;;3.00;;
6017;SDS011;3037;51.068;13.780;2023-05-16T14:58:17;14.00;;;3.40;;
6017;SDS011;3037;51.068;13.780;2023-05-16T15:00:42;7.23;;;3.10;;
6017;SDS011;3037;51.068;13.780;2023-05-16T15:03:08;7.40;;;3.50;;
6017;SDS011;3037;51.068;13.780;2023-05-16T15:05:33;5.67;;;2.70;;
6017;SDS011;3037;51.068;13.780;2023-05-16T15:07:59;9.30;;;3.37;;
6017;SDS011;3037;51.068;13.780;2023-05-16T15:10:25;7.80;;;2.80;;
6017;SDS011;3037;51.068;13.780;2023-05-16T15:12:51;8.60;;;2.80;;
6017;SDS011;3037;51.068;13.780;2023-05-16T15:15:17;5.43;;;2.87;;